createdAt,value
2022-09-26T00:00:05.638Z,99925.16
2022-09-26T00:02:32.299Z,99917.22
2022-09-26T00:04:58.875Z,99907.59
2022-09-26T00:07:25.509Z,99894.37
2022-09-26T00:09:52.061Z,99890.78
2022-09-26T00:12:18.606Z,99903.16
2022-09-26T00:14:45.160Z,99898.81
2022-09-26T00:17:11.769Z,99900.50
2022-09-26T00:19:40.846Z,99897.94
2022-09-26T00:22:07.411Z,99887.37
2022-09-26T00:24:34.164Z,99884.72
2022-09-26T00:27:00.892Z,99889.16
2022-09-26T00:29:27.517Z,99888.22
2022-09-26T00:31:54.108Z,99898.81
2022-09-26T00:34:20.858Z,99897.94
2022-09-26T00:36:47.451Z,99880.38
2022-09-26T00:39:14.758Z,99879.44
2022-09-26T00:41:41.421Z,99868.94
2022-09-26T00:44:46.185Z,99864.50
2022-09-26T00:47:27.183Z,99860.06
2022-09-26T00:49:59.650Z,99861.00
2022-09-26T00:52:29.018Z,99861.91
2022-09-26T00:54:56.214Z,99861.06
2022-09-26T00:57:24.956Z,99856.56
2022-09-26T00:59:55.060Z,99850.44
2022-09-26T01:02:22.043Z,99846.06
2022-09-26T01:04:48.785Z,99837.25
2022-09-26T01:07:18.233Z,99842.56
2022-09-26T01:09:44.774Z,99838.12
2022-09-26T01:12:14.211Z,99831.97
2022-09-26T01:14:41.188Z,99828.47
2022-09-26T01:17:07.942Z,99825.84
2022-09-26T01:19:52.292Z,99829.34
2022-09-26T01:22:40.873Z,99827.63
2022-09-26T01:25:36.127Z,99835.56
2022-09-26T01:28:36.897Z,99838.19
2022-09-26T01:31:25.097Z,99833.00
2022-09-26T01:34:32.050Z,99832.06
2022-09-26T01:37:14.470Z,99821.47
2022-09-26T01:39:40.914Z,99825.06
2022-09-26T01:42:23.825Z,99815.34
2022-09-26T01:44:51.619Z,99817.13
2022-09-26T01:47:52.986Z,99808.34
2022-09-26T01:50:30.029Z,99817.13
2022-09-26T01:53:21.061Z,99815.34
2022-09-26T01:55:50.553Z,99806.56
2022-09-26T01:58:27.507Z,99802.22
2022-09-26T02:00:54.816Z,99807.50
2022-09-26T02:03:22.510Z,99801.31
2022-09-26T02:05:58.476Z,99790.75
2022-09-26T02:08:34.244Z,99795.19
2022-09-26T02:11:04.743Z,99788.97
2022-09-26T02:13:52.133Z,99793.38
2022-09-26T02:16:25.943Z,99789.88
2022-09-26T02:19:02.995Z,99776.66
2022-09-26T02:21:29.929Z,99782.81
2022-09-26T02:23:56.500Z,99778.41
2022-09-26T02:26:23.703Z,99774.03
2022-09-26T02:28:50.459Z,99771.38
2022-09-26T02:31:22.063Z,99770.53
2022-09-26T02:33:52.331Z,99778.47
2022-09-26T02:36:19.324Z,99776.75
2022-09-26T02:38:45.909Z,99789.97
2022-09-26T02:41:52.160Z,99794.31
2022-09-26T02:44:20.792Z,99804.06
2022-09-26T02:47:25.596Z,99803.19
2022-09-26T02:50:02.357Z,99791.69
2022-09-26T02:52:46.307Z,99774.13
2022-09-26T02:55:27.175Z,99767.97
2022-09-26T02:58:05.905Z,99770.63
2022-09-26T03:01:20.206Z,99767.97
2022-09-26T03:03:55.110Z,99760.03
2022-09-26T03:06:24.518Z,99768.06
2022-09-26T03:08:51.209Z,99776.00
2022-09-26T03:11:20.820Z,99769.75
2022-09-26T03:13:53.155Z,99775.06
2022-09-26T03:16:20.375Z,99776.84
2022-09-26T03:18:55.380Z,99773.34
2022-09-26T03:21:22.180Z,99768.06
2022-09-26T03:23:49.791Z,99759.28
2022-09-26T03:26:18.998Z,99744.25
2022-09-26T03:28:45.733Z,99761.03
2022-09-26T03:31:12.465Z,99762.78
2022-09-26T03:33:41.037Z,99761.91
2022-09-26T03:36:09.582Z,99755.75
2022-09-26T03:38:36.199Z,99745.16
2022-09-26T03:41:02.895Z,99739.97
2022-09-26T03:43:29.760Z,99733.75
2022-09-26T03:45:56.556Z,99719.66
2022-09-26T03:48:23.448Z,99725.91
2022-09-26T03:50:50.041Z,99710.87
2022-09-26T03:53:16.606Z,99710.87
2022-09-26T03:55:43.248Z,99710.03
2022-09-26T03:58:10.297Z,99707.41
2022-09-26T04:00:38.891Z,99706.53
2022-09-26T04:03:08.187Z,99695.03
2022-09-26T04:05:34.946Z,99699.47
2022-09-26T04:08:03.088Z,99695.87
2022-09-26T04:10:29.670Z,99697.66
2022-09-26T04:12:57.033Z,99693.22
2022-09-26T04:15:23.573Z,99687.00
2022-09-26T04:17:50.271Z,99692.28
2022-09-26T04:20:16.904Z,99684.34
2022-09-26T04:22:43.480Z,99685.25
2022-09-26T04:25:10.347Z,99679.06
2022-09-26T04:27:38.010Z,99680.81
2022-09-26T04:30:04.959Z,99685.16
2022-09-26T04:32:31.585Z,99679.00
2022-09-26T04:35:00.829Z,99671.94
2022-09-26T04:37:27.590Z,99668.44
2022-09-26T04:39:54.575Z,99669.28
2022-09-26T04:42:21.686Z,99670.16
2022-09-26T04:44:48.255Z,99677.22
2022-09-26T04:47:14.826Z,99680.72
2022-09-26T04:49:41.380Z,99682.50
2022-09-26T04:52:07.963Z,99677.22
2022-09-26T04:54:37.419Z,99676.28
2022-09-26T04:57:05.773Z,99664.00
2022-09-26T04:59:32.912Z,99671.94
2022-09-26T05:01:59.502Z,99686.84
2022-09-26T05:04:27.743Z,99693.84
2022-09-26T05:06:57.930Z,99693.84
2022-09-26T05:09:25.158Z,99687.72
2022-09-26T05:11:52.154Z,99682.44
2022-09-26T05:14:20.822Z,99691.22
2022-09-26T05:16:47.595Z,99685.06
2022-09-26T05:19:14.500Z,99682.44
2022-09-26T05:21:43.032Z,99686.78
2022-09-26T05:24:28.244Z,99684.12
2022-09-26T05:26:55.576Z,99681.47
2022-09-26T05:29:22.171Z,99672.69
2022-09-26T05:31:48.906Z,99668.25
2022-09-26T05:34:19.610Z,99673.56
2022-09-26T05:36:46.970Z,99662.97
2022-09-26T05:39:32.107Z,99660.34
2022-09-26T05:41:58.934Z,99662.97
2022-09-26T05:44:25.826Z,99663.81
2022-09-26T05:46:52.648Z,99662.97
2022-09-26T05:49:19.308Z,99668.25
2022-09-26T05:51:46.519Z,99663.81
2022-09-26T05:54:15.583Z,99684.12
2022-09-26T05:56:42.123Z,99698.19
2022-09-26T05:59:09.064Z,99689.41
2022-09-26T06:01:36.113Z,99701.03
2022-09-26T06:04:05.671Z,99701.16
2022-09-26T06:06:32.524Z,99684.59
2022-09-26T06:09:00.036Z,99681.19
2022-09-26T06:11:32.368Z,99665.47
2022-09-26T06:14:01.846Z,99657.63
2022-09-26T06:16:28.702Z,99648.94
2022-09-26T06:18:55.988Z,99656.00
2022-09-26T06:21:23.108Z,99652.34
2022-09-26T06:23:49.806Z,99639.88
2022-09-26T06:26:20.093Z,99639.75
2022-09-26T06:28:47.458Z,99636.16
2022-09-26T06:31:16.866Z,99647.53
2022-09-26T06:33:43.602Z,99641.28
2022-09-26T06:36:10.922Z,99650.94
2022-09-26T06:38:38.167Z,99657.91
2022-09-26T06:41:07.624Z,99651.72
2022-09-26T06:43:34.552Z,99648.13
2022-09-26T06:46:01.098Z,99653.34
2022-09-26T06:48:27.749Z,99673.63
2022-09-26T06:50:55.472Z,99667.41
2022-09-26T06:53:22.041Z,99661.28
2022-09-26T06:55:49.507Z,99668.22
2022-09-26T06:58:16.087Z,99667.25
2022-09-26T07:00:42.754Z,99661.12
2022-09-26T07:03:09.451Z,99653.09
2022-09-26T07:05:36.050Z,99646.97
2022-09-26T07:08:03.163Z,99647.81
2022-09-26T07:10:30.536Z,99647.72
2022-09-26T07:13:05.354Z,99659.19
2022-09-26T07:15:33.439Z,99655.66
2022-09-26T07:18:02.515Z,99658.25
2022-09-26T07:20:32.129Z,99663.53
2022-09-26T07:23:05.386Z,99667.97
2022-09-26T07:25:32.153Z,99656.44
2022-09-26T07:27:59.006Z,99653.81
2022-09-26T07:30:25.795Z,99652.00
2022-09-26T07:32:52.402Z,99650.22
2022-09-26T07:35:19.241Z,99653.72
2022-09-26T07:37:46.187Z,99661.66
2022-09-26T07:40:12.837Z,99672.22
2022-09-26T07:42:39.565Z,99668.63
2022-09-26T07:45:28.729Z,99685.41
2022-09-26T07:48:11.895Z,99688.03
2022-09-26T07:50:38.502Z,99692.28
2022-09-26T07:53:05.085Z,99697.50
2022-09-26T07:55:31.738Z,99698.44
2022-09-26T07:57:59.251Z,99697.50
2022-09-26T08:00:26.416Z,99695.72
2022-09-26T08:02:53.239Z,99703.63
2022-09-26T08:05:20.123Z,99695.66
2022-09-26T08:07:47.614Z,99699.16
2022-09-26T08:10:22.142Z,99692.06
2022-09-26T08:12:48.820Z,99689.41
2022-09-26T08:15:15.629Z,99695.56
2022-09-26T08:17:43.367Z,99700.84
2022-09-26T08:20:10.262Z,99694.63
2022-09-26T08:22:37.160Z,99701.63
2022-09-26T08:25:04.279Z,99692.81
2022-09-26T08:27:34.532Z,99691.06
2022-09-26T08:30:06.640Z,99691.91
2022-09-26T08:32:37.187Z,99703.34
2022-09-26T08:35:03.886Z,99702.50
2022-09-26T08:37:31.196Z,99698.06
2022-09-26T08:39:57.878Z,99700.69
2022-09-26T08:42:28.654Z,99700.75
2022-09-26T08:45:28.410Z,99690.34
2022-09-26T08:48:14.822Z,99694.00
2022-09-26T08:50:56.989Z,99695.87
2022-09-26T08:53:28.639Z,99697.69
2022-09-26T08:55:55.679Z,99689.81
2022-09-26T08:58:44.647Z,99695.09
2022-09-26T09:01:14.867Z,99696.03
2022-09-26T09:03:55.578Z,99695.19
2022-09-26T09:06:22.165Z,99702.13
2022-09-26T09:08:51.829Z,99706.28
2022-09-26T09:11:43.273Z,99705.38
2022-09-26T09:14:33.165Z,99717.75
2022-09-26T09:17:14.132Z,99714.22
2022-09-26T09:19:52.708Z,99702.88
2022-09-26T09:22:31.285Z,99701.09
2022-09-26T09:25:04.927Z,99712.50
2022-09-26T09:28:03.970Z,99699.28
2022-09-26T09:30:39.952Z,99694.63
2022-09-26T09:33:21.657Z,99699.66
2022-09-26T09:35:51.472Z,99691.69
2022-09-26T09:38:20.644Z,99693.28
2022-09-26T09:40:57.311Z,99693.12
2022-09-26T09:43:30.830Z,99692.91
2022-09-26T09:46:06.306Z,99677.97
2022-09-26T09:48:33.027Z,99683.31
2022-09-26T09:51:12.350Z,99674.53
2022-09-26T09:53:44.717Z,99677.19
2022-09-26T09:56:22.589Z,99679.59
2022-09-26T09:58:58.726Z,99669.94
2022-09-26T10:01:28.552Z,99673.28
2022-09-26T10:03:57.597Z,99668.00
2022-09-26T10:06:46.067Z,99670.66
2022-09-26T10:09:40.747Z,99676.09
2022-09-26T10:12:19.265Z,99661.06
2022-09-26T10:15:11.752Z,99663.81
2022-09-26T10:17:40.443Z,99655.88
2022-09-26T10:20:15.086Z,99666.34
2022-09-26T10:22:45.054Z,99670.69
2022-09-26T10:25:19.553Z,99665.59
2022-09-26T10:27:48.030Z,99663.09
2022-09-26T10:30:19.919Z,99674.72
2022-09-26T10:32:49.847Z,99664.28
2022-09-26T10:35:43.648Z,99656.25
2022-09-26T10:38:23.792Z,99664.03
2022-09-26T10:40:55.390Z,99677.09
2022-09-26T10:43:33.046Z,99672.59
2022-09-26T10:46:04.211Z,99673.78
2022-09-26T10:48:42.948Z,99677.34
2022-09-26T10:51:09.516Z,99676.66
2022-09-26T10:53:37.912Z,99674.00
2022-09-26T10:56:10.959Z,99672.38
2022-09-26T10:58:43.160Z,99667.25
2022-09-26T11:01:25.652Z,99674.31
2022-09-26T11:03:58.462Z,99673.47
2022-09-26T11:06:33.222Z,99678.94
2022-09-26T11:09:02.542Z,99674.53
2022-09-26T11:11:37.596Z,99676.34
2022-09-26T11:14:07.536Z,99670.06
2022-09-26T11:16:43.449Z,99686.00
2022-09-26T11:19:22.436Z,99696.59
2022-09-26T11:22:05.820Z,99693.06
2022-09-26T11:24:45.956Z,99694.09
2022-09-26T11:27:24.124Z,99690.59
2022-09-26T11:30:02.137Z,99683.59
2022-09-26T11:32:42.197Z,99687.16
2022-09-26T11:35:30.629Z,99683.66
2022-09-26T11:38:05.701Z,99680.16
2022-09-26T11:40:32.491Z,99668.50
2022-09-26T11:43:25.410Z,99669.34
2022-09-26T11:46:15.408Z,99664.28
2022-09-26T11:49:01.032Z,99666.19
2022-09-26T11:51:39.005Z,99667.25
2022-09-26T11:54:32.498Z,99673.41
2022-09-26T11:57:01.613Z,99668.25
2022-09-26T12:00:02.172Z,99676.13
2022-09-26T12:03:07.136Z,99676.13
2022-09-26T12:05:44.415Z,99672.56
2022-09-26T12:08:23.868Z,99666.41
2022-09-26T12:10:50.292Z,99670.75
2022-09-26T12:13:52.500Z,99666.22
2022-09-26T12:16:22.208Z,99650.13
2022-09-26T12:19:15.555Z,99654.56
2022-09-26T12:22:20.686Z,99639.56
2022-09-26T12:25:22.164Z,99640.50
2022-09-26T12:28:10.221Z,99628.13
2022-09-26T12:30:44.832Z,99626.19
2022-09-26T12:33:30.157Z,99620.75
2022-09-26T12:36:09.076Z,99624.25
2022-09-26T12:39:00.452Z,99626.94
2022-09-26T12:41:51.777Z,99619.00
2022-09-26T12:44:56.643Z,99617.31
2022-09-26T12:47:39.215Z,99617.31
2022-09-26T12:50:24.936Z,99613.72
2022-09-26T12:53:18.223Z,99608.44
2022-09-26T12:55:54.391Z,99608.44
2022-09-26T12:58:27.081Z,99604.94
2022-09-26T13:01:28.863Z,99602.28
2022-09-26T13:04:14.899Z,99597.94
2022-09-26T13:07:14.781Z,99589.16
2022-09-26T13:10:03.041Z,99597.09
2022-09-26T13:12:42.481Z,99600.59
2022-09-26T13:15:19.393Z,99601.44
2022-09-26T13:17:48.002Z,99591.81
2022-09-26T13:20:21.579Z,99596.16
2022-09-26T13:23:02.238Z,99604.09
2022-09-26T13:25:39.830Z,99602.28
2022-09-26T13:28:07.193Z,99603.13
2022-09-26T13:30:38.899Z,99607.53
2022-09-26T13:33:33.436Z,99606.66
2022-09-26T13:36:00.833Z,99611.87
2022-09-26T13:38:52.937Z,99610.16
2022-09-26T13:41:44.784Z,99599.59
2022-09-26T13:44:45.700Z,99599.59
2022-09-26T13:47:27.365Z,99597.78
2022-09-26T13:50:08.526Z,99612.72
2022-09-26T13:52:45.173Z,99611.87
2022-09-26T13:55:19.298Z,99612.72
2022-09-26T13:58:03.931Z,99619.81
2022-09-26T14:00:30.510Z,99612.72
2022-09-26T14:03:19.192Z,99611.87
2022-09-26T14:05:52.643Z,99599.59
2022-09-26T14:08:43.988Z,99592.41
2022-09-26T14:11:30.324Z,99587.13
2022-09-26T14:14:18.976Z,99596.84
2022-09-26T14:16:51.275Z,99597.78
2022-09-26T14:19:28.956Z,99592.56
2022-09-26T14:22:05.933Z,99590.84
2022-09-26T14:24:33.502Z,99582.06
2022-09-26T14:27:05.168Z,99577.62
2022-09-26T14:29:36.087Z,99579.34
2022-09-26T14:32:10.438Z,99567.00
2022-09-26T14:34:43.785Z,99561.72
2022-09-26T14:37:25.459Z,99553.69
2022-09-26T14:39:52.907Z,99558.97
2022-09-26T14:42:24.422Z,99554.53
2022-09-26T14:45:02.043Z,99562.38
2022-09-26T14:47:30.844Z,99558.81
2022-09-26T14:50:05.616Z,99544.72
2022-09-26T14:52:32.755Z,99543.81
2022-09-26T14:55:01.135Z,99545.50
2022-09-26T14:57:30.783Z,99547.19
2022-09-26T14:59:58.947Z,99551.63
2022-09-26T15:02:28.153Z,99550.69
2022-09-26T15:05:09.910Z,99561.22
2022-09-26T15:07:41.678Z,99550.63
2022-09-26T15:10:21.909Z,99556.78
2022-09-26T15:12:57.241Z,99546.19
2022-09-26T15:15:42.105Z,99547.91
2022-09-26T15:18:35.614Z,99539.97
2022-09-26T15:21:28.420Z,99539.03
2022-09-26T15:23:58.293Z,99538.16
2022-09-26T15:26:32.132Z,99536.37
2022-09-26T15:28:58.688Z,99528.44
2022-09-26T15:31:28.013Z,99525.78
2022-09-26T15:33:55.698Z,99524.00
2022-09-26T15:36:22.249Z,99522.19
2022-09-26T15:38:49.311Z,99524.00
2022-09-26T15:41:37.405Z,99532.78
2022-09-26T15:44:07.005Z,99515.13
2022-09-26T15:46:33.671Z,99522.19
2022-09-26T15:49:00.608Z,99530.13
2022-09-26T15:51:33.086Z,99534.41
2022-09-26T15:54:05.057Z,99533.47
2022-09-26T15:56:45.373Z,99529.03
2022-09-26T15:59:14.767Z,99527.25
2022-09-26T16:01:42.837Z,99528.94
2022-09-26T16:04:14.208Z,99528.94
2022-09-26T16:06:41.882Z,99524.53
2022-09-26T16:09:11.329Z,99527.19
2022-09-26T16:11:46.322Z,99523.66
2022-09-26T16:14:41.485Z,99533.31
2022-09-26T16:17:22.830Z,99529.81
2022-09-26T16:19:54.132Z,99531.53
2022-09-26T16:22:26.695Z,99530.69
2022-09-26T16:24:53.281Z,99523.59
2022-09-26T16:27:24.490Z,99518.28
2022-09-26T16:29:52.436Z,99533.22
2022-09-26T16:32:19.753Z,99531.53
2022-09-26T16:34:46.551Z,99532.38
2022-09-26T16:37:19.817Z,99538.53
2022-09-26T16:39:56.008Z,99538.53
2022-09-26T16:42:25.535Z,99531.53
2022-09-26T16:44:54.334Z,99534.06
2022-09-26T16:47:26.584Z,99535.78
2022-09-26T16:49:53.161Z,99523.50
2022-09-26T16:52:28.902Z,99525.28
2022-09-26T16:54:57.119Z,99518.19
2022-09-26T16:57:29.409Z,99512.06
2022-09-26T17:00:18.713Z,99517.25
2022-09-26T17:02:45.495Z,99520.75
2022-09-26T17:05:18.699Z,99524.34
2022-09-26T17:07:46.298Z,99519.91
2022-09-26T17:10:12.982Z,99523.41
2022-09-26T17:12:39.739Z,99521.63
2022-09-26T17:15:07.517Z,99525.12
2022-09-26T17:17:34.261Z,99526.03
2022-09-26T17:20:01.920Z,99520.75
2022-09-26T17:22:28.570Z,99527.78
2022-09-26T17:24:55.229Z,99532.22
2022-09-26T17:27:27.152Z,99533.91
2022-09-26T17:29:56.064Z,99533.06
2022-09-26T17:32:31.082Z,99532.97
2022-09-26T17:35:01.079Z,99541.84
2022-09-26T17:37:28.333Z,99541.84
2022-09-26T17:39:55.291Z,99536.56
2022-09-26T17:42:23.205Z,99534.78
2022-09-26T17:44:50.503Z,99533.91
2022-09-26T17:47:18.205Z,99537.41
2022-09-26T17:49:48.218Z,99521.53
2022-09-26T17:52:29.455Z,99524.19
2022-09-26T17:55:01.342Z,99531.19
2022-09-26T17:57:30.320Z,99526.84
2022-09-26T17:59:57.408Z,99529.47
2022-09-26T18:02:44.502Z,99536.47
2022-09-26T18:05:45.617Z,99525.88
2022-09-26T18:08:23.061Z,99521.53
2022-09-26T18:10:55.031Z,99521.44
2022-09-26T18:13:22.654Z,99520.59
2022-09-26T18:15:53.125Z,99519.75
2022-09-26T18:18:21.087Z,99523.25
2022-09-26T18:20:49.350Z,99526.75
2022-09-26T18:23:18.981Z,99521.44
2022-09-26T18:25:47.435Z,99526.84
2022-09-26T18:28:15.517Z,99525.88
2022-09-26T18:30:43.026Z,99520.59
2022-09-26T18:33:09.973Z,99531.09
2022-09-26T18:35:36.600Z,99524.94
2022-09-26T18:38:03.458Z,99528.53
2022-09-26T18:40:30.203Z,99520.59
2022-09-26T18:42:57.814Z,99524.94
2022-09-26T18:45:28.996Z,99523.16
2022-09-26T18:47:55.567Z,99533.72
2022-09-26T18:50:31.031Z,99518.81
2022-09-26T18:52:57.593Z,99519.66
2022-09-26T18:55:43.377Z,99526.75
2022-09-26T18:58:27.871Z,99525.78
2022-09-26T19:01:15.795Z,99521.44
2022-09-26T19:03:47.057Z,99523.25
2022-09-26T19:06:16.090Z,99524.09
2022-09-26T19:08:43.710Z,99524.94
2022-09-26T19:11:23.430Z,99524.94
2022-09-26T19:13:51.677Z,99516.16
2022-09-26T19:16:18.515Z,99526.69
2022-09-26T19:18:45.418Z,99536.37
2022-09-26T19:21:28.283Z,99530.22
2022-09-26T19:23:54.881Z,99534.66
2022-09-26T19:26:32.105Z,99539.97
2022-09-26T19:28:58.954Z,99548.75
2022-09-26T19:31:26.409Z,99545.25
2022-09-26T19:33:53.164Z,99549.59
2022-09-26T19:36:19.770Z,99549.59
2022-09-26T19:38:46.558Z,99553.19
2022-09-26T19:41:13.262Z,99554.91
2022-09-26T19:43:42.875Z,99549.69
2022-09-26T19:46:17.150Z,99546.09
2022-09-26T19:48:46.877Z,99543.47
2022-09-26T19:51:14.667Z,99543.47
2022-09-26T19:53:41.301Z,99540.81
2022-09-26T19:56:08.011Z,99536.37
2022-09-26T19:58:34.813Z,99536.37
2022-09-26T20:01:06.749Z,99531.97
2022-09-26T20:03:35.499Z,99533.72
2022-09-26T20:06:02.371Z,99539.03
2022-09-26T20:08:28.935Z,99547.84
2022-09-26T20:10:55.775Z,99539.97
2022-09-26T20:13:22.369Z,99532.03
2022-09-26T20:15:49.087Z,99532.03
2022-09-26T20:18:20.746Z,99525.88
2022-09-26T20:20:55.716Z,99525.78
2022-09-26T20:23:26.393Z,99523.16
2022-09-26T20:25:53.806Z,99521.44
2022-09-26T20:28:20.726Z,99525.88
2022-09-26T20:30:54.359Z,99528.53
2022-09-26T20:33:24.643Z,99525.88
2022-09-26T20:36:00.267Z,99537.31
2022-09-26T20:38:37.884Z,99530.22
2022-09-26T20:41:16.450Z,99531.19
2022-09-26T20:43:44.339Z,99532.12
2022-09-26T20:46:11.057Z,99536.47
2022-09-26T20:48:37.849Z,99530.31
2022-09-26T20:51:04.835Z,99524.19
2022-09-26T20:53:31.502Z,99525.97
2022-09-26T20:55:58.176Z,99529.47
2022-09-26T20:58:24.726Z,99532.12
2022-09-26T21:00:53.239Z,99525.12
2022-09-26T21:03:21.960Z,99536.56
2022-09-26T21:05:48.737Z,99535.72
2022-09-26T21:08:26.294Z,99528.69
2022-09-26T21:10:53.000Z,99518.03
2022-09-26T21:13:19.539Z,99525.97
2022-09-26T21:15:46.132Z,99523.41
2022-09-26T21:18:35.611Z,99521.63
2022-09-26T21:21:07.485Z,99510.16
2022-09-26T21:23:39.014Z,99507.53
2022-09-26T21:26:05.744Z,99507.53
2022-09-26T21:28:32.369Z,99509.31
2022-09-26T21:31:07.811Z,99504.97
2022-09-26T21:33:34.420Z,99504.87
2022-09-26T21:36:01.192Z,99503.19
2022-09-26T21:38:27.755Z,99498.84
2022-09-26T21:40:56.126Z,99497.03
2022-09-26T21:43:23.256Z,99488.25
2022-09-26T21:45:50.083Z,99483.91
2022-09-26T21:48:16.792Z,99489.19
2022-09-26T21:50:52.874Z,99492.69
2022-09-26T21:53:24.609Z,99495.34
2022-09-26T21:55:52.900Z,99489.19
2022-09-26T21:58:23.061Z,99493.62
2022-09-26T22:00:50.867Z,99495.44
2022-09-26T22:03:17.645Z,99487.50
2022-09-26T22:05:44.281Z,99495.44
2022-09-26T22:08:10.853Z,99489.25
2022-09-26T22:10:37.500Z,99488.34
2022-09-26T22:13:04.388Z,99479.56
2022-09-26T22:15:33.727Z,99473.38
2022-09-26T22:18:01.588Z,99469.91
2022-09-26T22:20:28.190Z,99477.84
2022-09-26T22:22:55.544Z,99476.97
2022-09-26T22:25:22.113Z,99465.56
2022-09-26T22:27:48.675Z,99467.25
2022-09-26T22:30:15.476Z,99463.75
2022-09-26T22:32:42.104Z,99460.25
2022-09-26T22:35:08.744Z,99450.63
2022-09-26T22:37:35.308Z,99447.97
2022-09-26T22:40:02.564Z,99440.03
2022-09-26T22:42:29.198Z,99442.69
2022-09-26T22:45:01.871Z,99445.34
2022-09-26T22:47:28.472Z,99424.16
2022-09-26T22:49:55.070Z,99422.47
2022-09-26T22:52:21.598Z,99411.03
2022-09-26T22:54:48.149Z,99414.53
2022-09-26T22:57:15.220Z,99409.25
2022-09-26T22:59:44.225Z,99405.75
2022-09-26T23:02:10.811Z,99410.19
2022-09-26T23:04:49.793Z,99412.84
2022-09-26T23:07:17.979Z,99411.88
2022-09-26T23:09:44.633Z,99404.91
2022-09-26T23:12:11.197Z,99396.03
2022-09-26T23:14:38.411Z,99387.31
2022-09-26T23:17:05.608Z,99392.59
2022-09-26T23:19:32.633Z,99384.66
2022-09-26T23:21:59.482Z,99374.06
2022-09-26T23:24:26.094Z,99375.87
2022-09-26T23:26:52.718Z,99384.66
2022-09-26T23:29:19.268Z,99382.97
2022-09-26T23:31:45.856Z,99379.47
2022-09-26T23:34:12.412Z,99376.81
2022-09-26T23:36:39.015Z,99366.25
2022-09-26T23:39:05.703Z,99363.59
2022-09-26T23:41:32.521Z,99362.75
2022-09-26T23:43:59.112Z,99368.87
2022-09-26T23:46:25.826Z,99366.25
2022-09-26T23:48:52.596Z,99359.25
2022-09-26T23:51:19.197Z,99354.81
2022-09-26T23:53:46.486Z,99353.13
2022-09-26T23:56:14.095Z,99351.31
2022-09-26T23:58:40.946Z,99349.62
